Time;durP1;ratioP1;P1;durP2;ratioP2;P2;SDS_P1;SDS_P2;PMS_P1;PMS_P2;Temp;Humidity;BMP_temperature;BMP_pressure;BME280_temperature;BME280_humidity;BME280_pressure;Samples;Min_cycle;Max_cycle;Signal;HPM_P1;HPM_P2
2021/06/13 00:01:09;;;;;;;0.80;0.50;;;;;;;22.75;24.86;98800.38;5093509;28;20028;-59
2021/06/13 00:03:36;;;;;;;1.35;0.95;;;;;;;23.49;24.24;98805.88;5093151;28;20520;-59
2021/06/13 00:06:03;;;;;;;1.33;0.90;;;;;;;24.03;23.87;98798.25;5093586;28;20120;-59
2021/06/13 00:08:29;;;;;;;2.58;1.08;;;;;;;24.57;23.80;98800.00;5093038;28;20032;-60
2021/06/13 00:10:56;;;;;;;0.30;0.30;;;;;;;25.10;23.40;98796.09;5092965;28;20397;-60
2021/06/13 00:13:22;;;;;;;1.00;0.93;;;;;;;25.65;23.24;98799.31;5092946;28;20063;-59
2021/06/13 00:15:48;;;;;;;0.90;0.60;;;;;;;26.36;22.75;98790.22;5092889;28;20071;-59
2021/06/13 00:18:14;;;;;;;0.70;0.70;;;;;;;27.04;22.35;98796.88;5093079;28;20378;-59
2021/06/13 00:20:40;;;;;;;0.93;0.65;;;;;;;27.60;21.91;98802.94;5092860;28;20114;-59
2021/06/13 00:23:06;;;;;;;0.73;0.52;;;;;;;28.07;21.31;98795.31;5093084;28;20114;-59
2021/06/13 00:25:32;;;;;;;0.75;0.70;;;;;;;28.20;21.67;98796.94;5092605;28;20180;-58
2021/06/13 00:27:58;;;;;;;1.45;1.00;;;;;;;28.11;22.03;98799.88;5092959;28;20060;-58
2021/06/13 00:30:24;;;;;;;0.68;0.40;;;;;;;28.18;21.98;98788.00;5091390;28;20051;-60
2021/06/13 00:32:50;;;;;;;0.45;0.45;;;;;;;28.83;21.41;98795.72;5093107;28;20039;-59
2021/06/13 00:35:18;;;;;;;0.20;0.20;;;;;;;29.52;21.09;98785.19;5092926;28;20397;-60
2021/06/13 00:37:44;;;;;;;0.70;0.45;;;;;;;30.18;20.55;98784.84;5092960;28;20073;-59
2021/06/13 00:40:11;;;;;;;0.63;0.52;;;;;;;30.63;20.35;98792.00;5092665;28;20028;-59
2021/06/13 00:42:37;;;;;;;0.55;0.55;;;;;;;31.05;20.17;98782.84;5092779;28;20039;-59
2021/06/13 00:45:06;;;;;;;2.40;0.95;;;;;;;31.38;19.97;98789.97;5093454;28;20039;-62
2021/06/13 00:47:31;;;;;;;0.17;0.17;;;;;;;31.83;19.64;98796.06;5095398;28;20024;-58
2021/06/13 00:49:57;;;;;;;1.35;0.75;;;;;;;32.32;19.36;98794.50;5096788;28;20031;-59
2021/06/13 00:52:24;;;;;;;0.20;0.20;;;;;;;32.72;19.26;98790.25;5096767;28;20036;-58
2021/06/13 00:54:50;;;;;;;3.53;0.65;;;;;;;33.10;19.02;98796.84;5096841;28;20367;-60
2021/06/13 00:57:16;;;;;;;0.60;0.60;;;;;;;33.31;18.92;98798.34;5096968;28;20078;-59
2021/06/13 00:59:41;;;;;;;1.48;0.75;;;;;;;33.56;18.92;98792.94;5096923;28;20028;-61
2021/06/13 01:02:07;;;;;;;0.90;0.82;;;;;;;33.78;18.59;98787.50;5096873;28;20035;-58
2021/06/13 01:04:33;;;;;;;0.63;0.63;;;;;;;33.99;18.67;98787.66;5095086;28;20058;-61
2021/06/13 01:07:15;;;;;;;1.25;0.60;;;;;;;34.08;18.82;98790.19;5096932;28;20028;-60
2021/06/13 01:09:58;;;;;;;1.25;0.93;;;;;;;34.25;18.65;98785.00;5096321;28;20032;-60
2021/06/13 01:13:00;;;;;;;0.20;0.20;;;;;;;34.40;18.57;98781.09;5096425;28;20032;-60
2021/06/13 01:15:34;;;;;;;0.40;0.40;;;;;;;34.75;18.37;98780.50;5096518;28;20047;-59
2021/06/13 01:18:06;;;;;;;0.40;0.40;;;;;;;35.11;17.78;98764.81;5096303;28;20035;-60
2021/06/13 01:20:42;;;;;;;0.50;0.50;;;;;;;35.40;17.68;98775.09;5096613;28;20163;-59
2021/06/13 01:23:17;;;;;;;0.57;0.57;;;;;;;35.49;17.90;98774.72;5096650;28;20074;-61
2021/06/13 01:26:22;;;;;;;0.20;0.20;;;;;;;35.91;17.60;98775.22;5096698;28;20043;-61
2021/06/13 01:29:00;;;;;;;0.25;0.25;;;;;;;36.62;16.78;98780.09;5095694;28;20559;-60
2021/06/13 01:31:54;;;;;;;0.55;0.35;;;;;;;37.29;16.78;98770.91;5096263;28;20039;-59
2021/06/13 01:34:26;;;;;;;0.20;0.20;;;;;;;37.72;16.54;98773.50;5073660;28;20040;-62
2021/06/13 01:36:54;;;;;;;0.20;0.20;;;;;;;38.19;15.85;98773.19;5074051;28;20222;-59
2021/06/13 01:39:25;;;;;;;0.10;0.10;;;;;;;38.72;16.00;98779.63;5073379;28;20609;-60
2021/06/13 01:41:52;;;;;;;0.40;0.40;;;;;;;39.35;15.71;98778.50;5073948;28;20036;-60
2021/06/13 01:44:20;;;;;;;0.35;0.35;;;;;;;39.86;15.24;98778.59;5073255;28;20024;-61
2021/06/13 01:46:49;;;;;;;0.50;0.50;;;;;;;40.44;15.12;98773.47;5073817;28;20119;-60
2021/06/13 01:49:17;;;;;;;3.30;0.30;;;;;;;40.94;14.64;98763.13;5069392;28;20130;-58
2021/06/13 01:51:44;;;;;;;0.10;0.10;;;;;;;41.36;14.38;98777.09;5055486;28;20070;-59
2021/06/13 01:54:11;;;;;;;0.68;0.68;;;;;;;41.76;14.14;98774.13;5072991;28;20028;-56
2021/06/13 01:56:41;;;;;;;0.13;0.13;;;;;;;42.02;14.04;98780.06;5071711;28;20090;-51
2021/06/13 01:59:09;;;;;;;1.00;0.60;;;;;;;40.91;15.04;98778.41;5072846;28;20032;-56
2021/06/13 02:01:36;;;;;;;0.75;0.57;;;;;;;38.14;16.98;98785.88;5073300;28;20036;-57
2021/06/13 02:04:04;;;;;;;1.50;1.40;;;;;;;36.24;18.82;98761.75;5073521;28;20609;-57
2021/06/13 02:06:32;;;;;;;0.40;0.30;;;;;;;34.92;19.48;98776.16;5072741;28;20037;-58
2021/06/13 02:08:59;;;;;;;0.55;0.55;;;;;;;32.97;21.31;98782.06;5073511;28;20029;-57
2021/06/13 02:11:28;;;;;;;2.55;0.47;;;;;;;31.09;22.97;98769.53;5085733;28;20047;-58
2021/06/13 02:13:55;;;;;;;1.05;0.73;;;;;;;29.45;24.24;98775.69;5094963;28;20032;-56
2021/06/13 02:16:21;;;;;;;0.98;0.63;;;;;;;28.22;25.10;98771.19;5095019;28;20058;-57
2021/06/13 02:18:49;;;;;;;1.27;0.85;;;;;;;27.26;25.80;98773.94;5093591;28;20032;-60
2021/06/13 02:21:16;;;;;;;0.98;0.82;;;;;;;26.61;26.34;98781.94;5094794;28;20493;-56
2021/06/13 02:23:43;;;;;;;1.83;1.00;;;;;;;26.15;26.20;98776.13;5094873;28;20405;-60
2021/06/13 02:26:11;;;;;;;0.60;0.60;;;;;;;25.84;25.90;98774.44;5093377;28;20063;-59
2021/06/13 02:28:40;;;;;;;0.20;0.20;;;;;;;25.63;26.17;98773.50;5093489;28;20052;-56
2021/06/13 02:31:07;;;;;;;1.52;1.35;;;;;;;25.61;25.78;98781.47;5094701;28;20028;-57
2021/06/13 02:33:39;;;;;;;1.75;1.05;;;;;;;25.67;25.17;98768.88;5094618;28;20032;-58
2021/06/13 02:36:05;;;;;;;2.83;1.52;;;;;;;25.80;24.99;98781.88;5093406;28;20031;-56
2021/06/13 02:38:31;;;;;;;0.55;0.40;;;;;;;25.96;24.38;98776.53;5094780;28;20035;-56
2021/06/13 02:40:57;;;;;;;1.85;0.75;;;;;;;26.09;24.37;98777.47;5094427;28;20406;-58
2021/06/13 02:43:23;;;;;;;0.52;0.52;;;;;;;26.13;24.19;98783.25;5094490;28;20406;-57
2021/06/13 02:45:49;;;;;;;0.40;0.40;;;;;;;26.09;24.01;98773.81;5094975;28;20032;-57
2021/06/13 02:48:17;;;;;;;0.57;0.57;;;;;;;26.05;24.07;98774.50;5094538;28;20581;-58
2021/06/13 02:50:43;;;;;;;0.35;0.35;;;;;;;25.97;23.98;98777.34;5094350;28;20036;-59
2021/06/13 02:53:44;;;;;;;0.45;0.45;;;;;;;25.75;24.10;98781.22;5094484;28;20039;-60
2021/06/13 02:56:15;;;;;;;0.38;0.22;;;;;;;25.44;24.48;98788.78;5094539;28;20031;-60
2021/06/13 02:58:44;;;;;;;0.98;0.47;;;;;;;25.32;24.27;98785.84;5094563;28;20181;-63
2021/06/13 03:01:14;;;;;;;0.30;0.30;;;;;;;25.39;24.50;98769.28;5094695;28;20056;-61
2021/06/13 03:03:42;;;;;;;0.50;0.50;;;;;;;25.61;23.82;98779.47;5092769;28;20028;-60
2021/06/13 03:06:15;;;;;;;1.17;0.47;;;;;;;25.94;23.89;98778.84;5093949;28;20111;-59
2021/06/13 03:08:42;;;;;;;0.68;0.68;;;;;;;26.32;23.37;98782.81;5092973;28;20032;-60
2021/06/13 03:11:09;;;;;;;0.63;0.60;;;;;;;26.42;23.56;98781.59;5093869;28;20024;-59
2021/06/13 03:13:35;;;;;;;2.13;1.60;;;;;;;26.43;23.20;98780.41;5092559;28;20032;-60
2021/06/13 03:16:02;;;;;;;1.52;1.13;;;;;;;26.48;23.23;98777.41;5093791;28;20028;-59
2021/06/13 03:18:29;;;;;;;1.13;0.65;;;;;;;26.77;23.10;98776.56;5094600;28;20038;-61
2021/06/13 03:20:57;;;;;;;0.90;0.68;;;;;;;26.77;22.86;98775.72;5093726;28;20051;-60
2021/06/13 03:23:27;;;;;;;1.40;0.73;;;;;;;26.62;23.07;98774.31;5093790;28;20031;-60
2021/06/13 03:25:54;;;;;;;0.50;0.50;;;;;;;26.39;23.61;98766.22;5093471;28;20020;-60
2021/06/13 03:28:21;;;;;;;1.00;0.95;;;;;;;26.16;23.69;98774.97;5093661;28;20044;-60
2021/06/13 03:30:48;;;;;;;0.90;0.90;;;;;;;26.02;24.08;98774.38;5093732;28;20031;-61
2021/06/13 03:33:15;;;;;;;1.55;0.40;;;;;;;25.97;23.88;98769.75;5093531;28;20023;-61
2021/06/13 03:35:42;;;;;;;1.25;1.15;;;;;;;26.16;23.56;98774.97;5093685;28;20085;-60
2021/06/13 03:38:09;;;;;;;0.52;0.52;;;;;;;27.99;21.92;98762.34;5092096;28;20020;-61
2021/06/13 03:40:36;;;;;;;0.47;0.47;;;;;;;30.99;19.18;98770.13;5093201;28;20039;-60
2021/06/13 03:43:02;;;;;;;0.45;0.45;;;;;;;33.69;17.20;98770.69;5093752;28;20028;-61
2021/06/13 03:45:28;;;;;;;0.63;0.63;;;;;;;34.02;16.99;98766.94;5091957;28;20067;-60
2021/06/13 03:47:58;;;;;;;6.18;0.73;;;;;;;33.95;17.53;98772.59;5093568;28;20024;-61
2021/06/13 03:50:25;;;;;;;2.85;0.55;;;;;;;34.57;17.16;98768.16;5092096;28;20123;-60
2021/06/13 03:52:51;;;;;;;2.10;1.42;;;;;;;36.50;16.23;98777.69;5093619;28;20032;-62
2021/06/13 03:55:17;;;;;;;0.40;0.40;;;;;;;38.16;15.04;98765.41;5093326;28;20081;-60
2021/06/13 03:57:47;;;;;;;0.13;0.13;;;;;;;39.41;14.13;98763.19;5093534;28;20489;-61
2021/06/13 04:00:14;;;;;;;1.02;0.77;;;;;;;40.16;14.22;98763.31;5093746;28;20036;-61
2021/06/13 04:02:43;;;;;;;0.45;0.45;;;;;;;40.94;13.78;98770.94;5093348;28;20028;-62
2021/06/13 04:05:11;;;;;;;0.10;0.10;;;;;;;41.58;13.72;98767.94;5093107;28;20443;-62
2021/06/13 04:07:40;;;;;;;0.47;0.47;;;;;;;42.13;13.63;98762.50;5093195;28;20028;-65
2021/06/13 04:10:06;;;;;;;1.27;0.95;;;;;;;42.76;13.24;98767.03;5093374;28;20039;-62
2021/06/13 04:12:33;;;;;;;0.20;0.20;;;;;;;43.25;12.98;98768.13;5093390;28;20032;-62
2021/06/13 04:15:00;;;;;;;0.20;0.20;;;;;;;43.17;13.37;98761.75;5092855;28;20031;-63
2021/06/13 04:17:27;;;;;;;0.10;0.10;;;;;;;43.01;13.61;98759.72;5093173;28;20434;-61
2021/06/13 04:19:54;;;;;;;0.40;0.40;;;;;;;42.89;13.77;98764.19;5092284;28;20032;-61
2021/06/13 04:22:21;;;;;;;0.10;0.10;;;;;;;42.94;13.59;98757.06;5092969;28;20032;-63
2021/06/13 04:24:50;;;;;;;1.10;0.28;;;;;;;42.97;13.84;98753.25;5093026;28;20024;-64
2021/06/13 04:27:20;;;;;;;0.13;0.13;;;;;;;42.88;13.89;98763.38;5091395;28;20124;-61
2021/06/13 04:29:46;;;;;;;0.10;0.10;;;;;;;43.06;13.76;98762.06;5092482;28;20051;-61
2021/06/13 04:32:13;;;;;;;0.10;0.10;;;;;;;42.61;14.09;98769.53;5092790;28;20154;-61
2021/06/13 04:34:39;;;;;;;0.10;0.10;;;;;;;42.53;14.17;98760.19;5092957;28;20137;-61
2021/06/13 04:37:06;;;;;;;0.32;0.30;;;;;;;42.68;13.75;98765.59;5092817;28;20054;-62
2021/06/13 04:39:33;;;;;;;0.32;0.20;;;;;;;42.44;13.99;98773.69;5093025;28;20036;-63
2021/06/13 04:42:01;;;;;;;0.20;0.20;;;;;;;42.46;13.74;98757.50;5092991;28;20064;-63
2021/06/13 04:44:28;;;;;;;0.10;0.10;;;;;;;40.54;15.28;98759.38;5091632;28;20058;-63
2021/06/13 04:46:53;;;;;;;0.10;0.10;;;;;;;38.58;16.91;98771.97;5092774;28;20039;-62
2021/06/13 04:49:19;;;;;;;0.10;0.10;;;;;;;37.54;17.53;98772.81;5092890;28;20028;-62
2021/06/13 04:51:49;;;;;;;0.20;0.20;;;;;;;37.41;17.05;98761.00;5092945;28;20021;-60
2021/06/13 04:55:00;;;;;;;0.00;0.00;;;;;;;36.22;18.05;98750.72;5092503;28;20501;-61
2021/06/13 04:57:48;;;;;;;0.10;0.10;;;;;;;35.28;18.44;98755.50;5053394;28;20043;-62
2021/06/13 05:00:14;;;;;;;0.10;0.10;;;;;;;34.86;18.31;98763.47;5070658;28;20093;-60
2021/06/13 05:02:40;;;;;;;0.00;0.00;;;;;;;34.37;18.51;98768.44;5053420;28;20068;-62
2021/06/13 05:05:07;;;;;;;0.08;0.08;;;;;;;33.79;18.94;98770.00;5053203;28;20059;-67
2021/06/13 05:07:33;;;;;;;0.30;0.30;;;;;;;34.01;18.38;98767.34;5070591;28;20041;-63
2021/06/13 05:09:58;;;;;;;0.03;0.03;;;;;;;36.33;16.21;98764.22;5070132;28;20036;-60
2021/06/13 05:12:24;;;;;;;0.20;0.20;;;;;;;38.50;14.53;98767.56;5070563;28;20021;-60
2021/06/13 05:14:50;;;;;;;0.10;0.10;;;;;;;39.78;13.79;98769.25;5070492;28;20048;-61
2021/06/13 05:17:16;;;;;;;0.10;0.10;;;;;;;40.05;13.71;98772.13;5070409;28;20534;-61
2021/06/13 05:19:42;;;;;;;0.10;0.10;;;;;;;39.92;13.89;98763.28;5053007;28;20063;-61
2021/06/13 05:22:08;;;;;;;0.10;0.10;;;;;;;40.59;13.83;98764.63;5070077;28;20506;-61
2021/06/13 05:24:36;;;;;;;0.10;0.10;;;;;;;41.31;13.10;98766.84;5069783;28;20153;-61
2021/06/13 05:27:03;;;;;;;0.05;0.05;;;;;;;41.04;13.38;98769.13;5070209;28;20571;-61
2021/06/13 05:29:30;;;;;;;0.22;0.22;;;;;;;40.47;13.71;98763.19;5069641;28;20091;-65
2021/06/13 05:31:57;;;;;;;0.10;0.10;;;;;;;39.67;14.54;98769.44;5070540;28;20076;-63
2021/06/13 05:34:23;;;;;;;0.10;0.10;;;;;;;38.96;15.19;98776.91;5086916;28;20445;-63
2021/06/13 05:36:48;;;;;;;0.10;0.10;;;;;;;39.29;14.50;98763.78;5094617;28;20067;-62
2021/06/13 05:39:14;;;;;;;0.20;0.20;;;;;;;40.13;14.22;98772.03;5095710;28;20067;-63
2021/06/13 05:41:40;;;;;;;0.32;0.20;;;;;;;40.97;13.51;98767.19;5096176;28;20039;-63
2021/06/13 05:44:05;;;;;;;0.10;0.10;;;;;;;41.57;13.22;98761.34;5096228;28;20138;-61
2021/06/13 05:46:31;;;;;;;0.20;0.20;;;;;;;42.03;13.08;98764.38;5095953;28;20042;-62
2021/06/13 05:48:59;;;;;;;0.43;0.20;;;;;;;42.30;13.03;98751.78;5096160;28;20057;-60
2021/06/13 05:51:25;;;;;;;0.28;0.17;;;;;;;42.35;12.96;98763.59;5096235;28;20036;-64
2021/06/13 05:53:50;;;;;;;0.10;0.10;;;;;;;42.00;13.33;98768.19;5096084;28;20028;-65
2021/06/13 05:56:16;;;;;;;0.43;0.30;;;;;;;41.05;14.00;98768.66;5094941;28;20359;-62
2021/06/13 05:58:42;;;;;;;0.30;0.30;;;;;;;38.39;15.66;98768.47;5095594;28;20032;-63
2021/06/13 06:01:08;;;;;;;0.30;0.30;;;;;;;35.90;17.46;98762.16;5095388;28;20494;-61
2021/06/13 06:03:33;;;;;;;0.30;0.30;;;;;;;34.03;19.17;98768.59;5095282;28;20131;-60
2021/06/13 06:05:59;;;;;;;0.10;0.10;;;;;;;32.86;19.73;98769.72;5094728;28;20032;-61
2021/06/13 06:08:27;;;;;;;0.00;0.00;;;;;;;32.20;19.94;98752.09;5095813;28;20078;-64
2021/06/13 06:10:53;;;;;;;0.30;0.30;;;;;;;31.58;20.34;98750.22;5095316;28;20059;-61
2021/06/13 06:13:19;;;;;;;0.20;0.20;;;;;;;31.04;20.41;98758.50;5093774;28;20493;-63
2021/06/13 06:15:45;;;;;;;0.20;0.20;;;;;;;30.52;20.38;98745.59;5095536;28;20111;-62
2021/06/13 06:18:10;;;;;;;0.10;0.10;;;;;;;30.13;20.50;98745.50;5093392;28;20114;-59
2021/06/13 06:20:36;;;;;;;0.10;0.10;;;;;;;29.89;20.31;98744.53;5092172;28;20075;-61
2021/06/13 06:23:03;;;;;;;1.33;0.68;;;;;;;29.80;20.17;98741.00;5095135;28;20043;-59
2021/06/13 06:25:29;;;;;;;0.10;0.10;;;;;;;29.86;19.88;98733.94;5095323;28;20028;-60
2021/06/13 06:27:57;;;;;;;0.10;0.10;;;;;;;30.02;19.78;98731.06;5094397;28;20032;-60
2021/06/13 06:30:24;;;;;;;0.50;0.50;;;;;;;30.02;19.62;98736.72;5094822;28;20395;-60
2021/06/13 06:32:50;;;;;;;3.75;0.50;;;;;;;29.98;19.47;98739.50;5094834;28;20028;-61
2021/06/13 06:35:16;;;;;;;0.00;0.00;;;;;;;30.05;19.48;98741.69;5094656;28;20618;-60
2021/06/13 06:37:43;;;;;;;0.20;0.20;;;;;;;29.97;19.47;98731.38;5094871;28;20469;-60
2021/06/13 06:40:11;;;;;;;0.32;0.32;;;;;;;29.74;19.80;98728.31;5093204;28;20031;-60
2021/06/13 06:42:38;;;;;;;0.17;0.17;;;;;;;29.45;19.89;98748.22;5094550;28;20036;-63
2021/06/13 06:45:06;;;;;;;0.30;0.20;;;;;;;29.07;20.38;98738.25;5094452;28;20115;-60
2021/06/13 06:47:31;;;;;;;0.10;0.10;;;;;;;28.73;20.51;98759.47;5094804;28;20493;-61
2021/06/13 06:49:57;;;;;;;0.10;0.10;;;;;;;28.44;20.75;98744.44;5093144;28;20089;-64
2021/06/13 06:52:23;;;;;;;0.10;0.10;;;;;;;28.13;20.99;98752.34;5094693;28;20031;-63
2021/06/13 06:54:49;;;;;;;2.55;0.25;;;;;;;27.78;21.11;98746.34;5094854;28;20054;-60
2021/06/13 06:57:15;;;;;;;0.00;0.00;;;;;;;27.45;21.54;98744.41;5094482;28;20038;-63
2021/06/13 06:59:41;;;;;;;0.25;0.25;;;;;;;27.24;21.76;98750.09;5094052;28;20024;-59
2021/06/13 07:02:07;;;;;;;0.15;0.05;;;;;;;27.05;21.85;98753.44;5092764;28;20035;-60
2021/06/13 07:04:32;;;;;;;0.20;0.20;;;;;;;26.93;21.69;98735.31;5094008;28;20107;-60
2021/06/13 07:06:58;;;;;;;0.10;0.10;;;;;;;26.86;21.93;98742.69;5094358;28;20028;-60
2021/06/13 07:09:24;;;;;;;0.00;0.00;;;;;;;26.81;22.00;98732.44;5089297;28;20028;-62
2021/06/13 07:11:49;;;;;;;0.00;0.00;;;;;;;26.80;22.03;98733.63;5090900;28;20127;-62
2021/06/13 07:14:15;;;;;;;0.30;0.30;;;;;;;26.76;21.83;98735.47;5091521;28;20519;-61
2021/06/13 07:16:41;;;;;;;0.55;0.32;;;;;;;26.74;21.63;98730.19;5089752;28;20082;-62
2021/06/13 07:19:07;;;;;;;0.10;0.10;;;;;;;26.75;21.68;98731.00;5091794;28;20511;-65
2021/06/13 07:21:33;;;;;;;0.10;0.10;;;;;;;26.73;21.87;98719.25;5091402;28;20039;-60
2021/06/13 07:23:59;;;;;;;0.20;0.20;;;;;;;26.70;21.73;98725.59;5090742;28;20035;-64
2021/06/13 07:26:26;;;;;;;0.10;0.10;;;;;;;26.69;21.92;98715.47;5090398;28;20455;-60
2021/06/13 07:28:52;;;;;;;0.17;0.17;;;;;;;26.67;21.98;98724.28;5089232;28;20055;-62
2021/06/13 07:31:19;;;;;;;0.28;0.28;;;;;;;26.70;22.02;98711.50;5088278;28;20509;-60
2021/06/13 07:33:45;;;;;;;0.10;0.10;;;;;;;26.68;22.10;98728.75;5091070;28;20032;-60
2021/06/13 07:36:11;;;;;;;0.10;0.10;;;;;;;26.68;21.91;98716.66;5089965;28;20505;-61
2021/06/13 07:38:37;;;;;;;0.05;0.05;;;;;;;26.72;21.83;98728.88;5091242;28;20039;-62
2021/06/13 07:41:03;;;;;;;0.35;0.30;;;;;;;26.71;21.72;98715.97;5091288;28;20044;-62
2021/06/13 07:43:29;;;;;;;0.20;0.20;;;;;;;26.69;21.97;98723.94;5090243;28;20076;-62
2021/06/13 07:45:54;;;;;;;0.30;0.30;;;;;;;26.68;21.96;98723.13;5090291;28;20492;-62
2021/06/13 07:48:20;;;;;;;0.75;0.52;;;;;;;26.68;22.25;98717.47;5091269;28;20081;-61
2021/06/13 07:50:47;;;;;;;0.10;0.10;;;;;;;26.65;22.13;98717.31;5090953;28;20111;-66
2021/06/13 07:53:13;;;;;;;0.50;0.50;;;;;;;26.62;22.09;98720.81;5091062;28;20553;-64
2021/06/13 07:55:40;;;;;;;0.00;0.00;;;;;;;26.61;22.12;98722.00;5089170;28;20078;-65
2021/06/13 07:58:15;;;;;;;0.00;0.00;;;;;;;26.60;22.41;98720.34;5091378;28;20469;-61
2021/06/13 08:00:41;;;;;;;0.10;0.10;;;;;;;26.56;22.24;98726.66;5088294;28;20032;-63
2021/06/13 08:03:07;;;;;;;0.00;0.00;;;;;;;26.54;22.10;98720.53;5088420;28;20123;-61
2021/06/13 08:05:35;;;;;;;0.10;0.10;;;;;;;26.54;22.18;98717.72;5091177;28;20116;-61
2021/06/13 08:08:07;;;;;;;0.28;0.22;;;;;;;26.61;22.41;98705.09;5091175;28;20024;-61
2021/06/13 08:10:35;;;;;;;0.20;0.20;;;;;;;26.66;22.35;98716.13;5090694;28;20519;-60
2021/06/13 08:13:02;;;;;;;0.40;0.40;;;;;;;26.64;21.97;98718.50;5090966;28;20060;-61
2021/06/13 08:15:28;;;;;;;3.20;0.15;;;;;;;26.66;22.24;98710.50;5091278;28;20036;-63
2021/06/13 08:17:56;;;;;;;5.57;0.88;;;;;;;26.69;21.96;98710.69;5090528;28;20035;-63
2021/06/13 08:20:22;;;;;;;9.52;0.63;;;;;;;26.73;21.99;98713.63;5089608;28;20036;-63
2021/06/13 08:22:48;;;;;;;0.00;0.00;;;;;;;26.72;21.79;98715.63;5090357;28;20040;-64
2021/06/13 08:25:15;;;;;;;0.20;0.20;;;;;;;26.72;22.17;98707.19;5073054;28;20024;-66
2021/06/13 08:27:42;;;;;;;0.00;0.00;;;;;;;26.72;21.97;98707.19;5091103;28;20031;-63
2021/06/13 08:30:10;;;;;;;0.10;0.10;;;;;;;26.71;21.92;98707.53;5089264;28;20047;-66
2021/06/13 08:32:36;;;;;;;0.10;0.10;;;;;;;26.74;21.79;98702.00;5089801;28;20033;-63
2021/06/13 08:35:04;;;;;;;0.00;0.00;;;;;;;26.76;22.10;98696.03;5089291;28;20032;-64
2021/06/13 08:37:31;;;;;;;0.00;0.00;;;;;;;26.78;21.83;98704.13;5091188;28;20032;-65
2021/06/13 08:39:57;;;;;;;0.10;0.10;;;;;;;26.83;21.72;98712.38;5090803;28;20036;-66
2021/06/13 08:42:22;;;;;;;0.30;0.28;;;;;;;26.85;21.47;98716.47;5089559;28;20120;-62
2021/06/13 08:44:50;;;;;;;1.15;1.15;;;;;;;26.83;21.84;98706.75;5068894;28;20029;-64
2021/06/13 08:47:18;;;;;;;0.08;0.08;;;;;;;26.84;21.42;98708.38;5088771;28;20063;-66
2021/06/13 08:49:46;;;;;;;0.10;0.10;;;;;;;26.87;21.46;98699.22;5090646;28;20048;-65
2021/06/13 08:52:11;;;;;;;0.10;0.10;;;;;;;26.89;21.46;98711.00;5090777;28;20036;-67
2021/06/13 08:54:39;;;;;;;0.10;0.10;;;;;;;26.90;21.42;98693.75;5090528;28;20442;-67
2021/06/13 08:57:06;;;;;;;0.10;0.10;;;;;;;26.96;21.55;98704.78;5090606;28;20104;-66
2021/06/13 08:59:32;;;;;;;0.32;0.32;;;;;;;27.00;21.20;98711.38;5089932;28;20486;-64
2021/06/13 09:02:00;;;;;;;0.08;0.08;;;;;;;27.03;21.25;98688.13;5089086;28;20063;-64
2021/06/13 09:04:26;;;;;;;0.10;0.10;;;;;;;27.05;21.31;98699.91;5087553;28;20604;-64
2021/06/13 09:06:51;;;;;;;0.00;0.00;;;;;;;27.06;21.36;98695.91;5091433;28;20032;-65
2021/06/13 09:09:23;;;;;;;0.10;0.10;;;;;;;27.08;21.29;98693.56;5094389;28;20032;-64
2021/06/13 09:12:19;;;;;;;0.30;0.30;;;;;;;27.10;21.18;98691.22;5091113;28;20118;-62
2021/06/13 09:14:47;;;;;;;0.35;0.30;;;;;;;27.13;21.12;98689.69;5080551;28;20044;-66
2021/06/13 09:17:28;;;;;;;0.10;0.10;;;;;;;27.14;21.37;98678.06;5071190;28;20029;-64
2021/06/13 09:20:24;;;;;;;0.10;0.10;;;;;;;27.13;21.26;98675.59;5073996;28;20089;-66
2021/06/13 09:23:11;;;;;;;0.68;0.68;;;;;;;27.16;21.40;98686.19;5089167;28;20513;-64
2021/06/13 09:25:40;;;;;;;0.10;0.10;;;;;;;27.19;21.39;98685.47;5070591;28;20090;-66
2021/06/13 09:28:17;;;;;;;0.10;0.10;;;;;;;27.22;21.32;98680.00;5089725;28;20024;-63
2021/06/13 09:30:46;;;;;;;0.10;0.10;;;;;;;27.25;21.20;98679.28;5084888;28;20067;-64
2021/06/13 09:33:13;;;;;;;0.20;0.20;;;;;;;27.23;20.99;98690.06;5050560;28;20060;-61
2021/06/13 09:35:41;;;;;;;0.57;0.30;;;;;;;27.23;21.08;98680.81;5069790;28;20505;-61
2021/06/13 09:38:19;;;;;;;0.00;0.00;;;;;;;27.24;21.22;98674.00;5069588;28;20748;-64
2021/06/13 09:40:57;;;;;;;0.13;0.13;;;;;;;27.30;21.27;98666.13;5070409;28;20545;-60
2021/06/13 09:43:29;;;;;;;0.60;0.20;;;;;;;27.28;21.24;98672.94;5058778;28;20410;-62
2021/06/13 09:46:12;;;;;;;0.32;0.32;;;;;;;27.31;21.07;98673.41;5064304;28;20178;-62
2021/06/13 09:48:53;;;;;;;0.03;0.03;;;;;;;27.34;21.27;98681.19;5081001;28;20497;-61
2021/06/13 09:51:25;;;;;;;0.10;0.10;;;;;;;27.37;21.33;98674.84;5080351;28;20043;-62
2021/06/13 09:53:56;;;;;;;0.10;0.10;;;;;;;27.40;21.18;98663.72;5075757;28;20105;-61
2021/06/13 09:56:24;;;;;;;0.10;0.10;;;;;;;27.42;20.98;98683.91;5095262;28;20027;-61
2021/06/13 09:58:53;;;;;;;0.10;0.10;;;;;;;27.45;21.31;98677.56;5093563;28;20043;-62
2021/06/13 10:01:22;;;;;;;0.10;0.10;;;;;;;27.48;21.01;98672.41;5093757;28;20028;-62
2021/06/13 10:03:48;;;;;;;0.00;0.00;;;;;;;27.51;21.28;98689.44;5092570;28;20574;-64
2021/06/13 10:06:19;;;;;;;0.13;0.10;;;;;;;27.52;21.19;98676.19;5093059;28;20397;-65
2021/06/13 10:08:47;;;;;;;0.40;0.35;;;;;;;27.52;21.21;98677.00;5093371;28;20032;-62
2021/06/13 10:11:14;;;;;;;0.10;0.10;;;;;;;27.54;21.45;98679.47;5093227;28;20070;-64
2021/06/13 10:13:44;;;;;;;0.13;0.10;;;;;;;27.56;21.09;98672.31;5092322;28;20024;-63
2021/06/13 10:16:30;;;;;;;0.10;0.10;;;;;;;27.56;21.03;98663.00;5093127;28;20072;-64
2021/06/13 10:19:04;;;;;;;0.32;0.32;;;;;;;27.60;21.26;98664.75;5092467;28;20032;-60
2021/06/13 10:21:35;;;;;;;0.10;0.10;;;;;;;27.67;21.33;98660.56;5094011;28;20028;-63
2021/06/13 10:24:06;;;;;;;0.10;0.10;;;;;;;27.71;21.39;98664.28;5093546;28;20107;-61
2021/06/13 10:26:34;;;;;;;0.10;0.10;;;;;;;27.70;21.19;98649.38;5090408;28;20040;-62
2021/06/13 10:29:02;;;;;;;0.10;0.10;;;;;;;27.76;21.19;98666.88;5093498;28;20465;-62
2021/06/13 10:31:27;;;;;;;0.00;0.00;;;;;;;27.80;21.00;98662.19;5094411;28;20024;-62
2021/06/13 10:33:54;;;;;;;0.17;0.13;;;;;;;27.80;21.10;98653.72;5088392;28;20512;-62
2021/06/13 10:36:20;;;;;;;0.05;0.05;;;;;;;27.77;21.18;98652.44;5091408;28;20047;-62
2021/06/13 10:38:47;;;;;;;0.20;0.20;;;;;;;27.75;21.08;98649.16;5093738;28;20497;-61
2021/06/13 10:41:13;;;;;;;0.10;0.10;;;;;;;27.80;21.42;98653.72;5092718;28;20032;-64
2021/06/13 10:43:40;;;;;;;0.10;0.10;;;;;;;27.84;21.07;98648.19;5092976;28;20020;-62
2021/06/13 10:46:25;;;;;;;0.08;0.08;;;;;;;27.86;21.26;98635.38;5093137;28;20050;-64
2021/06/13 10:48:52;;;;;;;0.13;0.13;;;;;;;27.86;21.09;98641.00;5090959;28;20046;-65
2021/06/13 10:51:32;;;;;;;0.00;0.00;;;;;;;27.88;21.12;98621.72;5092322;28;20067;-66
2021/06/13 10:54:19;;;;;;;0.00;0.00;;;;;;;27.91;20.95;98632.28;5092337;28;20058;-67
2021/06/13 10:56:46;;;;;;;0.10;0.10;;;;;;;27.95;20.92;98630.41;5093771;28;20043;-63
2021/06/13 10:59:17;;;;;;;0.17;0.17;;;;;;;28.00;21.28;98620.91;5091892;28;20119;-61
2021/06/13 11:02:09;;;;;;;1.00;0.15;;;;;;;28.05;21.13;98625.50;5090507;28;20050;-61
2021/06/13 11:04:45;;;;;;;0.32;0.32;;;;;;;28.07;20.77;98617.50;5092855;28;20123;-62
2021/06/13 11:07:39;;;;;;;0.43;0.43;;;;;;;28.10;21.01;98628.88;5091106;28;20413;-64
2021/06/13 11:12:58;;;;;;;0.10;0.10;;;;;;;28.18;21.10;98612.16;5091331;28;20044;-64
2021/06/13 11:15:38;;;;;;;0.10;0.10;;;;;;;28.16;21.01;98612.53;5091612;28;20416;-62
2021/06/13 11:18:14;;;;;;;0.10;0.10;;;;;;;28.10;20.84;98617.59;5091947;28;20559;-61
2021/06/13 11:20:46;;;;;;;0.10;0.10;;;;;;;28.11;20.82;98615.59;5092060;28;20085;-63
2021/06/13 11:23:21;;;;;;;0.00;0.00;;;;;;;28.14;20.77;98612.06;5092091;28;20501;-62
2021/06/13 11:25:49;;;;;;;0.00;0.00;;;;;;;28.11;20.81;98610.78;5091390;28;20038;-62
2021/06/13 11:28:19;;;;;;;0.15;0.15;;;;;;;28.10;20.97;98617.59;5091529;28;20408;-64
2021/06/13 11:30:53;;;;;;;0.00;0.00;;;;;;;28.10;20.82;98609.13;5091266;28;20147;-61
2021/06/13 11:33:34;;;;;;;0.00;0.00;;;;;;;28.05;20.58;98609.38;5091282;28;20040;-61
2021/06/13 11:36:25;;;;;;;0.35;0.35;;;;;;;28.01;20.61;98602.00;5091740;28;20032;-64
2021/06/13 11:39:04;;;;;;;0.10;0.10;;;;;;;27.97;20.69;98601.88;5091297;28;20035;-64
2021/06/13 11:41:39;;;;;;;0.00;0.00;;;;;;;27.94;20.56;98609.03;5091245;28;20028;-65
2021/06/13 11:44:08;;;;;;;0.00;0.00;;;;;;;27.90;20.89;98604.44;5091301;28;20063;-65
2021/06/13 11:46:45;;;;;;;0.00;0.00;;;;;;;27.87;20.76;98603.16;5091936;28;20036;-64